sensor_id;sensor_type;location;lat;lon;timestamp;P1;durP1;ratioP1;P2;durP2;ratioP2
21727;SDS011;11026;50.560;17.852;2023-07-30T00:00:59;2.85;;;1.77;;
21727;SDS011;11026;50.560;17.852;2023-07-30T00:03:27;2.80;;;1.70;;
21727;SDS011;11026;50.560;17.852;2023-07-30T00:05:54;3.42;;;1.70;;
21727;SDS011;11026;50.560;17.852;2023-07-30T00:08:23;2.63;;;1.60;;
21727;SDS011;11026;50.560;17.852;2023-07-30T00:10:51;2.30;;;1.60;;
21727;SDS011;11026;50.560;17.852;2023-07-30T00:13:20;3.92;;;1.58;;
21727;SDS011;11026;50.560;17.852;2023-07-30T00:15:49;1.77;;;1.50;;
21727;SDS011;11026;50.560;17.852;2023-07-30T00:18:18;1.80;;;1.55;;
21727;SDS011;11026;50.560;17.852;2023-07-30T00:20:45;1.83;;;1.42;;
21727;SDS011;11026;50.560;17.852;2023-07-30T00:23:13;1.98;;;1.40;;
21727;SDS011;11026;50.560;17.852;2023-07-30T00:25:40;2.58;;;1.55;;
21727;SDS011;11026;50.560;17.852;2023-07-30T00:28:08;2.53;;;1.75;;
21727;SDS011;11026;50.560;17.852;2023-07-30T00:30:35;3.55;;;1.63;;
21727;SDS011;11026;50.560;17.852;2023-07-30T00:33:05;2.70;;;1.50;;
21727;SDS011;11026;50.560;17.852;2023-07-30T00:35:32;1.55;;;1.45;;
21727;SDS011;11026;50.560;17.852;2023-07-30T00:38:00;1.90;;;1.70;;
21727;SDS011;11026;50.560;17.852;2023-07-30T00:40:27;2.00;;;1.80;;
21727;SDS011;11026;50.560;17.852;2023-07-30T00:43:02;4.30;;;1.55;;
21727;SDS011;11026;50.560;17.852;2023-07-30T00:45:29;1.70;;;1.40;;
21727;SDS011;11026;50.560;17.852;2023-07-30T00:47:57;2.90;;;1.20;;
21727;SDS011;11026;50.560;17.852;2023-07-30T00:50:25;1.77;;;1.38;;
21727;SDS011;11026;50.560;17.852;2023-07-30T00:52:54;1.75;;;1.60;;
21727;SDS011;11026;50.560;17.852;2023-07-30T00:55:21;2.95;;;1.60;;
21727;SDS011;11026;50.560;17.852;2023-07-30T00:57:48;2.38;;;1.58;;
21727;SDS011;11026;50.560;17.852;2023-07-30T01:00:23;2.22;;;1.75;;
21727;SDS011;11026;50.560;17.852;2023-07-30T01:02:51;3.50;;;1.70;;
21727;SDS011;11026;50.560;17.852;2023-07-30T01:05:19;2.22;;;1.63;;
21727;SDS011;11026;50.560;17.852;2023-07-30T01:07:47;2.08;;;1.63;;
21727;SDS011;11026;50.560;17.852;2023-07-30T01:10:17;2.88;;;1.60;;
21727;SDS011;11026;50.560;17.852;2023-07-30T01:12:44;1.92;;;1.40;;
21727;SDS011;11026;50.560;17.852;2023-07-30T01:15:12;1.77;;;1.30;;
21727;SDS011;11026;50.560;17.852;2023-07-30T01:17:42;3.17;;;1.55;;
21727;SDS011;11026;50.560;17.852;2023-07-30T01:20:10;2.38;;;1.52;;
21727;SDS011;11026;50.560;17.852;2023-07-30T01:22:38;1.73;;;1.35;;
21727;SDS011;11026;50.560;17.852;2023-07-30T01:25:13;1.63;;;1.35;;
21727;SDS011;11026;50.560;17.852;2023-07-30T01:27:44;1.58;;;1.33;;
21727;SDS011;11026;50.560;17.852;2023-07-30T01:30:41;3.10;;;1.60;;
21727;SDS011;11026;50.560;17.852;2023-07-30T01:33:11;2.55;;;1.50;;
21727;SDS011;11026;50.560;17.852;2023-07-30T01:35:39;1.83;;;1.35;;
21727;SDS011;11026;50.560;17.852;2023-07-30T01:38:12;3.85;;;1.50;;
21727;SDS011;11026;50.560;17.852;2023-07-30T01:40:46;2.20;;;1.50;;
21727;SDS011;11026;50.560;17.852;2023-07-30T01:43:13;5.00;;;2.08;;
21727;SDS011;11026;50.560;17.852;2023-07-30T01:45:41;5.20;;;1.60;;
21727;SDS011;11026;50.560;17.852;2023-07-30T01:48:08;1.55;;;1.45;;
21727;SDS011;11026;50.560;17.852;2023-07-30T01:50:37;1.85;;;1.38;;
21727;SDS011;11026;50.560;17.852;2023-07-30T01:53:04;2.08;;;1.50;;
21727;SDS011;11026;50.560;17.852;2023-07-30T01:55:32;4.10;;;1.48;;
21727;SDS011;11026;50.560;17.852;2023-07-30T01:57:59;4.78;;;1.70;;
21727;SDS011;11026;50.560;17.852;2023-07-30T02:00:27;1.52;;;1.42;;
21727;SDS011;11026;50.560;17.852;2023-07-30T02:02:54;3.58;;;1.88;;
21727;SDS011;11026;50.560;17.852;2023-07-30T02:05:22;2.55;;;1.70;;
21727;SDS011;11026;50.560;17.852;2023-07-30T02:07:50;2.65;;;1.67;;
21727;SDS011;11026;50.560;17.852;2023-07-30T02:10:17;2.10;;;1.50;;
21727;SDS011;11026;50.560;17.852;2023-07-30T02:12:45;2.65;;;1.70;;
21727;SDS011;11026;50.560;17.852;2023-07-30T02:15:13;2.80;;;1.50;;
21727;SDS011;11026;50.560;17.852;2023-07-30T02:17:41;2.00;;;1.73;;
21727;SDS011;11026;50.560;17.852;2023-07-30T02:20:08;2.50;;;1.80;;
21727;SDS011;11026;50.560;17.852;2023-07-30T02:22:36;4.25;;;1.88;;
21727;SDS011;11026;50.560;17.852;2023-07-30T02:25:04;2.53;;;1.70;;
21727;SDS011;11026;50.560;17.852;2023-07-30T02:27:32;3.53;;;1.73;;
21727;SDS011;11026;50.560;17.852;2023-07-30T02:29:59;2.90;;;1.88;;
21727;SDS011;11026;50.560;17.852;2023-07-30T02:32:27;2.88;;;1.88;;
21727;SDS011;11026;50.560;17.852;2023-07-30T02:34:56;2.28;;;1.80;;
21727;SDS011;11026;50.560;17.852;2023-07-30T02:37:23;1.77;;;1.60;;
21727;SDS011;11026;50.560;17.852;2023-07-30T02:39:50;2.75;;;1.48;;
21727;SDS011;11026;50.560;17.852;2023-07-30T02:42:18;2.50;;;1.55;;
21727;SDS011;11026;50.560;17.852;2023-07-30T02:44:45;2.47;;;1.67;;
21727;SDS011;11026;50.560;17.852;2023-07-30T02:47:13;2.85;;;1.88;;
21727;SDS011;11026;50.560;17.852;2023-07-30T02:49:40;3.17;;;1.60;;
21727;SDS011;11026;50.560;17.852;2023-07-30T02:52:09;2.10;;;1.92;;
21727;SDS011;11026;50.560;17.852;2023-07-30T02:54:36;4.72;;;1.92;;
21727;SDS011;11026;50.560;17.852;2023-07-30T02:57:04;2.78;;;1.80;;
21727;SDS011;11026;50.560;17.852;2023-07-30T02:59:31;2.20;;;1.63;;
21727;SDS011;11026;50.560;17.852;2023-07-30T03:02:02;2.03;;;1.80;;
21727;SDS011;11026;50.560;17.852;2023-07-30T03:04:32;3.13;;;1.80;;
21727;SDS011;11026;50.560;17.852;2023-07-30T03:07:00;5.65;;;2.00;;
21727;SDS011;11026;50.560;17.852;2023-07-30T03:09:29;5.43;;;1.95;;
21727;SDS011;11026;50.560;17.852;2023-07-30T03:11:57;2.70;;;1.42;;
21727;SDS011;11026;50.560;17.852;2023-07-30T03:14:24;2.17;;;1.70;;
21727;SDS011;11026;50.560;17.852;2023-07-30T03:16:52;3.13;;;1.98;;
21727;SDS011;11026;50.560;17.852;2023-07-30T03:19:19;2.55;;;1.67;;
21727;SDS011;11026;50.560;17.852;2023-07-30T03:21:46;3.40;;;1.55;;
21727;SDS011;11026;50.560;17.852;2023-07-30T03:24:14;2.65;;;1.58;;
21727;SDS011;11026;50.560;17.852;2023-07-30T03:26:41;2.88;;;1.83;;
21727;SDS011;11026;50.560;17.852;2023-07-30T03:29:09;1.83;;;1.73;;
21727;SDS011;11026;50.560;17.852;2023-07-30T03:31:37;2.85;;;1.70;;
21727;SDS011;11026;50.560;17.852;2023-07-30T03:34:05;4.25;;;1.63;;
21727;SDS011;11026;50.560;17.852;2023-07-30T03:36:33;3.25;;;1.90;;
21727;SDS011;11026;50.560;17.852;2023-07-30T03:39:01;3.67;;;1.80;;
21727;SDS011;11026;50.560;17.852;2023-07-30T03:41:28;3.10;;;1.70;;
21727;SDS011;11026;50.560;17.852;2023-07-30T03:43:56;2.63;;;1.95;;
21727;SDS011;11026;50.560;17.852;2023-07-30T03:46:23;2.42;;;1.50;;
21727;SDS011;11026;50.560;17.852;2023-07-30T03:48:51;3.08;;;1.75;;
21727;SDS011;11026;50.560;17.852;2023-07-30T03:51:18;3.78;;;1.80;;
21727;SDS011;11026;50.560;17.852;2023-07-30T03:53:46;1.70;;;1.40;;
21727;SDS011;11026;50.560;17.852;2023-07-30T03:56:13;3.30;;;1.48;;
21727;SDS011;11026;50.560;17.852;2023-07-30T03:58:40;1.75;;;1.60;;
21727;SDS011;11026;50.560;17.852;2023-07-30T04:01:08;2.70;;;1.48;;
21727;SDS011;11026;50.560;17.852;2023-07-30T04:03:35;2.28;;;1.52;;
21727;SDS011;11026;50.560;17.852;2023-07-30T04:06:03;4.53;;;1.90;;
21727;SDS011;11026;50.560;17.852;2023-07-30T04:08:30;2.22;;;1.70;;
21727;SDS011;11026;50.560;17.852;2023-07-30T04:11:00;1.88;;;1.70;;
21727;SDS011;11026;50.560;17.852;2023-07-30T04:13:28;2.20;;;1.55;;
21727;SDS011;11026;50.560;17.852;2023-07-30T04:16:02;3.63;;;2.00;;
21727;SDS011;11026;50.560;17.852;2023-07-30T04:18:29;2.33;;;1.75;;
21727;SDS011;11026;50.560;17.852;2023-07-30T04:20:59;3.53;;;1.67;;
21727;SDS011;11026;50.560;17.852;2023-07-30T04:23:26;4.90;;;1.63;;
21727;SDS011;11026;50.560;17.852;2023-07-30T04:25:54;3.15;;;1.60;;
21727;SDS011;11026;50.560;17.852;2023-07-30T04:28:21;2.95;;;1.60;;
21727;SDS011;11026;50.560;17.852;2023-07-30T04:30:55;3.10;;;1.70;;
21727;SDS011;11026;50.560;17.852;2023-07-30T04:33:23;3.75;;;1.65;;
21727;SDS011;11026;50.560;17.852;2023-07-30T04:35:53;3.80;;;1.65;;
21727;SDS011;11026;50.560;17.852;2023-07-30T04:38:22;2.50;;;1.33;;
21727;SDS011;11026;50.560;17.852;2023-07-30T04:40:50;4.13;;;1.80;;
21727;SDS011;11026;50.560;17.852;2023-07-30T04:43:17;2.58;;;1.80;;
21727;SDS011;11026;50.560;17.852;2023-07-30T04:45:45;2.90;;;1.60;;
21727;SDS011;11026;50.560;17.852;2023-07-30T04:48:12;3.85;;;1.60;;
21727;SDS011;11026;50.560;17.852;2023-07-30T04:50:40;3.42;;;1.70;;
21727;SDS011;11026;50.560;17.852;2023-07-30T04:53:10;4.80;;;1.60;;
21727;SDS011;11026;50.560;17.852;2023-07-30T04:55:38;4.70;;;1.77;;
21727;SDS011;11026;50.560;17.852;2023-07-30T04:58:06;2.28;;;1.63;;
21727;SDS011;11026;50.560;17.852;2023-07-30T05:00:34;5.50;;;1.60;;
21727;SDS011;11026;50.560;17.852;2023-07-30T05:03:01;3.53;;;1.50;;
21727;SDS011;11026;50.560;17.852;2023-07-30T05:05:29;2.10;;;1.30;;
21727;SDS011;11026;50.560;17.852;2023-07-30T05:07:56;4.30;;;1.65;;
21727;SDS011;11026;50.560;17.852;2023-07-30T05:10:24;1.67;;;1.40;;
21727;SDS011;11026;50.560;17.852;2023-07-30T05:12:51;2.70;;;1.65;;
21727;SDS011;11026;50.560;17.852;2023-07-30T05:15:19;4.35;;;1.52;;
21727;SDS011;11026;50.560;17.852;2023-07-30T05:17:46;3.05;;;1.40;;
21727;SDS011;11026;50.560;17.852;2023-07-30T05:20:20;1.77;;;1.50;;
21727;SDS011;11026;50.560;17.852;2023-07-30T05:22:47;3.63;;;1.67;;
21727;SDS011;11026;50.560;17.852;2023-07-30T05:25:21;3.45;;;1.50;;
21727;SDS011;11026;50.560;17.852;2023-07-30T05:27:49;2.38;;;1.42;;
21727;SDS011;11026;50.560;17.852;2023-07-30T05:30:17;1.80;;;1.48;;
21727;SDS011;11026;50.560;17.852;2023-07-30T05:32:44;2.53;;;1.70;;
21727;SDS011;11026;50.560;17.852;2023-07-30T05:35:12;1.77;;;1.40;;
21727;SDS011;11026;50.560;17.852;2023-07-30T05:37:39;2.30;;;1.98;;
21727;SDS011;11026;50.560;17.852;2023-07-30T05:40:13;2.22;;;1.58;;
21727;SDS011;11026;50.560;17.852;2023-07-30T05:42:41;2.35;;;1.30;;
21727;SDS011;11026;50.560;17.852;2023-07-30T05:45:09;3.50;;;1.42;;
21727;SDS011;11026;50.560;17.852;2023-07-30T05:47:38;1.95;;;1.50;;
21727;SDS011;11026;50.560;17.852;2023-07-30T05:50:07;2.95;;;1.52;;
21727;SDS011;11026;50.560;17.852;2023-07-30T05:52:35;3.55;;;1.38;;
21727;SDS011;11026;50.560;17.852;2023-07-30T05:55:05;3.83;;;1.63;;
21727;SDS011;11026;50.560;17.852;2023-07-30T05:57:32;1.92;;;1.45;;
21727;SDS011;11026;50.560;17.852;2023-07-30T06:00:00;1.90;;;1.50;;
21727;SDS011;11026;50.560;17.852;2023-07-30T06:02:28;2.42;;;1.60;;
21727;SDS011;11026;50.560;17.852;2023-07-30T06:04:55;2.10;;;1.65;;
21727;SDS011;11026;50.560;17.852;2023-07-30T06:07:23;2.25;;;1.70;;
21727;SDS011;11026;50.560;17.852;2023-07-30T06:09:50;1.63;;;1.52;;
21727;SDS011;11026;50.560;17.852;2023-07-30T06:12:19;1.75;;;1.50;;
21727;SDS011;11026;50.560;17.852;2023-07-30T06:14:46;2.03;;;1.58;;
21727;SDS011;11026;50.560;17.852;2023-07-30T06:17:14;3.40;;;1.60;;
21727;SDS011;11026;50.560;17.852;2023-07-30T06:19:41;4.53;;;1.80;;
21727;SDS011;11026;50.560;17.852;2023-07-30T06:22:09;2.55;;;1.63;;
21727;SDS011;11026;50.560;17.852;2023-07-30T06:24:36;1.70;;;1.60;;
21727;SDS011;11026;50.560;17.852;2023-07-30T06:27:04;4.10;;;1.80;;
21727;SDS011;11026;50.560;17.852;2023-07-30T06:29:32;1.70;;;1.55;;
21727;SDS011;11026;50.560;17.852;2023-07-30T06:31:59;2.85;;;1.63;;
21727;SDS011;11026;50.560;17.852;2023-07-30T06:34:28;1.63;;;1.52;;
21727;SDS011;11026;50.560;17.852;2023-07-30T06:36:55;3.25;;;1.80;;
21727;SDS011;11026;50.560;17.852;2023-07-30T06:39:23;3.47;;;1.60;;
21727;SDS011;11026;50.560;17.852;2023-07-30T06:41:51;5.90;;;1.50;;
21727;SDS011;11026;50.560;17.852;2023-07-30T06:44:19;3.58;;;1.50;;
21727;SDS011;11026;50.560;17.852;2023-07-30T06:46:46;2.28;;;1.52;;
21727;SDS011;11026;50.560;17.852;2023-07-30T06:49:13;3.05;;;1.33;;
21727;SDS011;11026;50.560;17.852;2023-07-30T06:51:41;2.63;;;1.40;;
21727;SDS011;11026;50.560;17.852;2023-07-30T06:54:09;1.92;;;1.63;;
21727;SDS011;11026;50.560;17.852;2023-07-30T06:56:36;2.33;;;1.50;;
21727;SDS011;11026;50.560;17.852;2023-07-30T06:59:03;2.53;;;1.60;;
21727;SDS011;11026;50.560;17.852;2023-07-30T07:01:31;1.67;;;1.58;;
21727;SDS011;11026;50.560;17.852;2023-07-30T07:03:58;3.75;;;1.85;;
21727;SDS011;11026;50.560;17.852;2023-07-30T07:06:26;2.97;;;1.70;;
21727;SDS011;11026;50.560;17.852;2023-07-30T07:08:53;3.15;;;1.70;;
21727;SDS011;11026;50.560;17.852;2023-07-30T07:11:21;2.60;;;1.85;;
21727;SDS011;11026;50.560;17.852;2023-07-30T07:13:48;2.40;;;2.05;;
21727;SDS011;11026;50.560;17.852;2023-07-30T07:16:17;2.33;;;2.13;;
21727;SDS011;11026;50.560;17.852;2023-07-30T07:18:45;2.13;;;1.92;;
21727;SDS011;11026;50.560;17.852;2023-07-30T07:21:15;2.03;;;1.80;;
21727;SDS011;11026;50.560;17.852;2023-07-30T07:23:43;1.85;;;1.75;;
21727;SDS011;11026;50.560;17.852;2023-07-30T07:26:10;6.50;;;1.80;;
21727;SDS011;11026;50.560;17.852;2023-07-30T07:28:39;2.55;;;2.25;;
21727;SDS011;11026;50.560;17.852;2023-07-30T07:31:06;2.72;;;1.80;;
21727;SDS011;11026;50.560;17.852;2023-07-30T07:33:35;3.90;;;2.10;;
21727;SDS011;11026;50.560;17.852;2023-07-30T07:36:05;3.30;;;2.17;;
21727;SDS011;11026;50.560;17.852;2023-07-30T07:38:39;3.90;;;2.30;;
21727;SDS011;11026;50.560;17.852;2023-07-30T07:41:16;2.25;;;2.03;;
21727;SDS011;11026;50.560;17.852;2023-07-30T07:43:44;4.00;;;2.63;;
21727;SDS011;11026;50.560;17.852;2023-07-30T07:46:20;2.50;;;2.28;;
21727;SDS011;11026;50.560;17.852;2023-07-30T07:48:48;2.50;;;2.22;;
21727;SDS011;11026;50.560;17.852;2023-07-30T07:51:15;2.13;;;1.83;;
21727;SDS011;11026;50.560;17.852;2023-07-30T07:53:43;5.53;;;2.63;;
21727;SDS011;11026;50.560;17.852;2023-07-30T07:56:10;3.42;;;2.22;;
21727;SDS011;11026;50.560;17.852;2023-07-30T07:58:38;2.85;;;1.92;;
21727;SDS011;11026;50.560;17.852;2023-07-30T08:01:05;2.30;;;2.10;;
21727;SDS011;11026;50.560;17.852;2023-07-30T08:03:34;2.33;;;1.85;;
21727;SDS011;11026;50.560;17.852;2023-07-30T08:06:03;2.10;;;1.90;;
21727;SDS011;11026;50.560;17.852;2023-07-30T08:08:31;3.15;;;1.90;;
21727;SDS011;11026;50.560;17.852;2023-07-30T08:11:02;2.55;;;2.20;;
21727;SDS011;11026;50.560;17.852;2023-07-30T08:13:32;2.35;;;2.10;;
21727;SDS011;11026;50.560;17.852;2023-07-30T08:16:00;2.63;;;2.15;;
21727;SDS011;11026;50.560;17.852;2023-07-30T08:18:29;4.05;;;2.42;;
21727;SDS011;11026;50.560;17.852;2023-07-30T08:20:57;2.40;;;2.17;;
21727;SDS011;11026;50.560;17.852;2023-07-30T08:23:27;2.65;;;2.00;;
21727;SDS011;11026;50.560;17.852;2023-07-30T08:25:54;2.67;;;2.17;;
21727;SDS011;11026;50.560;17.852;2023-07-30T08:28:23;2.80;;;2.20;;
21727;SDS011;11026;50.560;17.852;2023-07-30T08:30:50;2.22;;;2.08;;
21727;SDS011;11026;50.560;17.852;2023-07-30T08:33:18;4.18;;;2.20;;
21727;SDS011;11026;50.560;17.852;2023-07-30T08:35:45;3.17;;;1.92;;
21727;SDS011;11026;50.560;17.852;2023-07-30T08:38:12;3.35;;;2.17;;
21727;SDS011;11026;50.560;17.852;2023-07-30T08:40:40;2.50;;;2.30;;
21727;SDS011;11026;50.560;17.852;2023-07-30T08:43:08;2.38;;;2.05;;
21727;SDS011;11026;50.560;17.852;2023-07-30T08:45:36;3.45;;;1.77;;
21727;SDS011;11026;50.560;17.852;2023-07-30T08:48:03;2.20;;;1.95;;
21727;SDS011;11026;50.560;17.852;2023-07-30T08:50:33;3.13;;;2.50;;
21727;SDS011;11026;50.560;17.852;2023-07-30T08:53:02;3.65;;;2.30;;
21727;SDS011;11026;50.560;17.852;2023-07-30T08:55:32;2.15;;;1.90;;
21727;SDS011;11026;50.560;17.852;2023-07-30T08:58:03;2.85;;;2.17;;
21727;SDS011;11026;50.560;17.852;2023-07-30T09:00:34;2.20;;;2.00;;
21727;SDS011;11026;50.560;17.852;2023-07-30T09:03:03;2.33;;;1.92;;
21727;SDS011;11026;50.560;17.852;2023-07-30T09:05:32;3.05;;;1.80;;
21727;SDS011;11026;50.560;17.852;2023-07-30T09:08:06;2.85;;;1.92;;
21727;SDS011;11026;50.560;17.852;2023-07-30T09:10:35;1.80;;;1.63;;
21727;SDS011;11026;50.560;17.852;2023-07-30T09:13:03;2.40;;;2.20;;
21727;SDS011;11026;50.560;17.852;2023-07-30T09:15:34;2.00;;;1.90;;
21727;SDS011;11026;50.560;17.852;2023-07-30T09:18:04;2.92;;;2.47;;
21727;SDS011;11026;50.560;17.852;2023-07-30T09:20:40;3.08;;;1.98;;
21727;SDS011;11026;50.560;17.852;2023-07-30T09:23:09;2.50;;;2.00;;
21727;SDS011;11026;50.560;17.852;2023-07-30T09:25:38;2.25;;;1.95;;
21727;SDS011;11026;50.560;17.852;2023-07-30T09:28:05;2.20;;;2.00;;
21727;SDS011;11026;50.560;17.852;2023-07-30T09:30:33;2.15;;;1.95;;
21727;SDS011;11026;50.560;17.852;2023-07-30T09:33:00;2.22;;;2.03;;
21727;SDS011;11026;50.560;17.852;2023-07-30T09:35:28;2.35;;;2.00;;
21727;SDS011;11026;50.560;17.852;2023-07-30T09:38:00;1.83;;;1.73;;
21727;SDS011;11026;50.560;17.852;2023-07-30T09:40:34;2.67;;;2.20;;
21727;SDS011;11026;50.560;17.852;2023-07-30T09:43:03;2.33;;;2.03;;
21727;SDS011;11026;50.560;17.852;2023-07-30T09:45:35;2.40;;;2.20;;
21727;SDS011;11026;50.560;17.852;2023-07-30T09:48:09;2.72;;;2.00;;
21727;SDS011;11026;50.560;17.852;2023-07-30T09:50:37;2.88;;;2.30;;
21727;SDS011;11026;50.560;17.852;2023-07-30T09:53:05;2.85;;;2.08;;
21727;SDS011;11026;50.560;17.852;2023-07-30T09:55:33;2.50;;;2.28;;
21727;SDS011;11026;50.560;17.852;2023-07-30T09:58:01;3.80;;;2.28;;
21727;SDS011;11026;50.560;17.852;2023-07-30T10:00:36;2.10;;;1.90;;
21727;SDS011;11026;50.560;17.852;2023-07-30T10:03:03;2.08;;;1.88;;
21727;SDS011;11026;50.560;17.852;2023-07-30T10:05:33;2.90;;;2.25;;
21727;SDS011;11026;50.560;17.852;2023-07-30T10:08:08;3.00;;;2.22;;
21727;SDS011;11026;50.560;17.852;2023-07-30T10:10:37;2.40;;;1.90;;
21727;SDS011;11026;50.560;17.852;2023-07-30T10:13:07;3.28;;;2.10;;
21727;SDS011;11026;50.560;17.852;2023-07-30T10:15:39;2.45;;;1.90;;
21727;SDS011;11026;50.560;17.852;2023-07-30T10:18:07;3.33;;;2.00;;
21727;SDS011;11026;50.560;17.852;2023-07-30T10:20:35;3.17;;;2.10;;
21727;SDS011;11026;50.560;17.852;2023-07-30T10:23:03;2.40;;;2.20;;
21727;SDS011;11026;50.560;17.852;2023-07-30T10:25:45;5.38;;;3.67;;
21727;SDS011;11026;50.560;17.852;2023-07-30T10:30:57;4.47;;;2.00;;
21727;SDS011;11026;50.560;17.852;2023-07-30T10:34:01;2.92;;;2.10;;
21727;SDS011;11026;50.560;17.852;2023-07-30T10:36:36;2.58;;;2.33;;
21727;SDS011;11026;50.560;17.852;2023-07-30T10:39:11;3.47;;;2.22;;
21727;SDS011;11026;50.560;17.852;2023-07-30T10:41:40;4.03;;;1.90;;
21727;SDS011;11026;50.560;17.852;2023-07-30T10:44:44;2.15;;;2.00;;
21727;SDS011;11026;50.560;17.852;2023-07-30T10:47:09;2.55;;;2.22;;
21727;SDS011;11026;50.560;17.852;2023-07-30T10:50:00;2.28;;;2.08;;
21727;SDS011;11026;50.560;17.852;2023-07-30T10:52:29;2.75;;;2.08;;
21727;SDS011;11026;50.560;17.852;2023-07-30T10:55:00;2.03;;;1.83;;
21727;SDS011;11026;50.560;17.852;2023-07-30T10:57:31;2.10;;;1.90;;
21727;SDS011;11026;50.560;17.852;2023-07-30T10:59:59;2.20;;;2.00;;
21727;SDS011;11026;50.560;17.852;2023-07-30T11:02:28;4.43;;;1.92;;
21727;SDS011;11026;50.560;17.852;2023-07-30T11:04:56;2.58;;;2.10;;
21727;SDS011;11026;50.560;17.852;2023-07-30T11:07:24;3.05;;;1.92;;
21727;SDS011;11026;50.560;17.852;2023-07-30T11:09:59;2.40;;;1.83;;
21727;SDS011;11026;50.560;17.852;2023-07-30T11:12:34;1.60;;;1.50;;
21727;SDS011;11026;50.560;17.852;2023-07-30T11:15:02;2.05;;;1.90;;
21727;SDS011;11026;50.560;17.852;2023-07-30T11:17:30;4.45;;;2.00;;
21727;SDS011;11026;50.560;17.852;2023-07-30T11:19:59;2.20;;;2.00;;
21727;SDS011;11026;50.560;17.852;2023-07-30T11:22:51;2.20;;;1.90;;
21727;SDS011;11026;50.560;17.852;2023-07-30T11:25:25;2.42;;;1.70;;
21727;SDS011;11026;50.560;17.852;2023-07-30T11:27:52;2.42;;;1.85;;
21727;SDS011;11026;50.560;17.852;2023-07-30T11:30:22;2.80;;;2.60;;
21727;SDS011;11026;50.560;17.852;2023-07-30T11:32:50;3.63;;;1.80;;
21727;SDS011;11026;50.560;17.852;2023-07-30T11:35:18;2.05;;;1.85;;
21727;SDS011;11026;50.560;17.852;2023-07-30T11:37:47;1.90;;;1.80;;
21727;SDS011;11026;50.560;17.852;2023-07-30T11:40:14;1.90;;;1.80;;
21727;SDS011;11026;50.560;17.852;2023-07-30T11:42:41;3.33;;;1.98;;
21727;SDS011;11026;50.560;17.852;2023-07-30T11:45:22;3.47;;;1.90;;
21727;SDS011;11026;50.560;17.852;2023-07-30T11:47:51;2.22;;;2.03;;
21727;SDS011;11026;50.560;17.852;2023-07-30T11:50:19;2.35;;;1.85;;
21727;SDS011;11026;50.560;17.852;2023-07-30T11:52:56;2.97;;;1.52;;
21727;SDS011;11026;50.560;17.852;2023-07-30T11:55:24;2.58;;;2.00;;
21727;SDS011;11026;50.560;17.852;2023-07-30T11:58:07;3.92;;;1.85;;
21727;SDS011;11026;50.560;17.852;2023-07-30T12:00:37;1.92;;;1.83;;
21727;SDS011;11026;50.560;17.852;2023-07-30T12:03:08;3.83;;;1.80;;
21727;SDS011;11026;50.560;17.852;2023-07-30T12:05:39;1.77;;;1.67;;
21727;SDS011;11026;50.560;17.852;2023-07-30T12:08:12;1.90;;;1.80;;
21727;SDS011;11026;50.560;17.852;2023-07-30T12:10:47;5.55;;;1.70;;
21727;SDS011;11026;50.560;17.852;2023-07-30T12:15:53;1.80;;;1.70;;
21727;SDS011;11026;50.560;17.852;2023-07-30T12:18:21;3.42;;;2.00;;
21727;SDS011;11026;50.560;17.852;2023-07-30T12:20:53;1.98;;;1.80;;
21727;SDS011;11026;50.560;17.852;2023-07-30T12:23:22;2.55;;;1.65;;
21727;SDS011;11026;50.560;17.852;2023-07-30T12:25:50;2.60;;;1.90;;
21727;SDS011;11026;50.560;17.852;2023-07-30T12:28:18;2.08;;;1.92;;
21727;SDS011;11026;50.560;17.852;2023-07-30T12:30:46;2.42;;;2.00;;
21727;SDS011;11026;50.560;17.852;2023-07-30T12:33:14;3.17;;;2.20;;
21727;SDS011;11026;50.560;17.852;2023-07-30T12:35:53;1.80;;;1.65;;
21727;SDS011;11026;50.560;17.852;2023-07-30T12:38:21;1.95;;;1.45;;
21727;SDS011;11026;50.560;17.852;2023-07-30T12:40:49;1.73;;;1.63;;
21727;SDS011;11026;50.560;17.852;2023-07-30T12:43:17;1.88;;;1.77;;
21727;SDS011;11026;50.560;17.852;2023-07-30T12:45:48;2.08;;;1.90;;
21727;SDS011;11026;50.560;17.852;2023-07-30T12:48:15;2.17;;;1.90;;
21727;SDS011;11026;50.560;17.852;2023-07-30T12:50:45;1.67;;;1.35;;
21727;SDS011;11026;50.560;17.852;2023-07-30T12:53:13;2.28;;;1.80;;
21727;SDS011;11026;50.560;17.852;2023-07-30T12:55:41;2.85;;;1.73;;
21727;SDS011;11026;50.560;17.852;2023-07-30T12:58:08;1.95;;;1.75;;
21727;SDS011;11026;50.560;17.852;2023-07-30T13:00:37;1.63;;;1.52;;
21727;SDS011;11026;50.560;17.852;2023-07-30T13:03:10;2.45;;;1.90;;
21727;SDS011;11026;50.560;17.852;2023-07-30T13:05:40;2.28;;;1.67;;
21727;SDS011;11026;50.560;17.852;2023-07-30T13:08:08;2.13;;;1.63;;
21727;SDS011;11026;50.560;17.852;2023-07-30T13:10:38;2.13;;;1.80;;
21727;SDS011;11026;50.560;17.852;2023-07-30T13:13:06;2.50;;;1.67;;
21727;SDS011;11026;50.560;17.852;2023-07-30T13:15:35;3.90;;;1.75;;
21727;SDS011;11026;50.560;17.852;2023-07-30T13:18:03;1.70;;;1.60;;
21727;SDS011;11026;50.560;17.852;2023-07-30T13:20:33;3.63;;;2.05;;
21727;SDS011;11026;50.560;17.852;2023-07-30T13:23:00;2.63;;;1.55;;
21727;SDS011;11026;50.560;17.852;2023-07-30T13:25:28;1.95;;;1.70;;
21727;SDS011;11026;50.560;17.852;2023-07-30T13:27:55;2.60;;;2.33;;
21727;SDS011;11026;50.560;17.852;2023-07-30T13:30:23;1.90;;;1.65;;
21727;SDS011;11026;50.560;17.852;2023-07-30T13:32:51;1.85;;;1.75;;
21727;SDS011;11026;50.560;17.852;2023-07-30T13:35:18;1.75;;;1.63;;
21727;SDS011;11026;50.560;17.852;2023-07-30T13:37:46;2.00;;;1.80;;
21727;SDS011;11026;50.560;17.852;2023-07-30T13:40:14;2.75;;;2.00;;
21727;SDS011;11026;50.560;17.852;2023-07-30T13:42:41;3.42;;;1.95;;
21727;SDS011;11026;50.560;17.852;2023-07-30T13:45:09;3.17;;;1.83;;
21727;SDS011;11026;50.560;17.852;2023-07-30T13:47:37;2.70;;;2.22;;
21727;SDS011;11026;50.560;17.852;2023-07-30T13:50:05;3.03;;;1.88;;
21727;SDS011;11026;50.560;17.852;2023-07-30T13:52:34;1.70;;;1.55;;
21727;SDS011;11026;50.560;17.852;2023-07-30T13:55:03;2.10;;;1.88;;
21727;SDS011;11026;50.560;17.852;2023-07-30T13:57:31;1.88;;;1.60;;
21727;SDS011;11026;50.560;17.852;2023-07-30T14:00:03;1.63;;;1.52;;
21727;SDS011;11026;50.560;17.852;2023-07-30T14:02:31;2.10;;;1.90;;
21727;SDS011;11026;50.560;17.852;2023-07-30T14:04:59;2.25;;;2.05;;
21727;SDS011;11026;50.560;17.852;2023-07-30T14:07:35;2.55;;;2.10;;
21727;SDS011;11026;50.560;17.852;2023-07-30T14:10:04;5.03;;;2.00;;
21727;SDS011;11026;50.560;17.852;2023-07-30T14:12:33;7.28;;;2.50;;
21727;SDS011;11026;50.560;17.852;2023-07-30T14:15:02;3.28;;;2.63;;
21727;SDS011;11026;50.560;17.852;2023-07-30T14:17:30;2.65;;;2.45;;
21727;SDS011;11026;50.560;17.852;2023-07-30T14:19:58;7.43;;;2.72;;
21727;SDS011;11026;50.560;17.852;2023-07-30T14:22:26;7.35;;;3.55;;
21727;SDS011;11026;50.560;17.852;2023-07-30T14:24:56;9.02;;;3.50;;
21727;SDS011;11026;50.560;17.852;2023-07-30T14:27:28;10.85;;;3.65;;
21727;SDS011;11026;50.560;17.852;2023-07-30T14:30:05;6.22;;;3.53;;
21727;SDS011;11026;50.560;17.852;2023-07-30T14:32:41;12.82;;;4.25;;
21727;SDS011;11026;50.560;17.852;2023-07-30T14:35:19;8.90;;;3.30;;
21727;SDS011;11026;50.560;17.852;2023-07-30T14:37:58;9.82;;;3.35;;
21727;SDS011;11026;50.560;17.852;2023-07-30T14:40:30;7.72;;;3.40;;
21727;SDS011;11026;50.560;17.852;2023-07-30T14:43:02;5.32;;;2.50;;
21727;SDS011;11026;50.560;17.852;2023-07-30T14:45:32;5.70;;;2.90;;
21727;SDS011;11026;50.560;17.852;2023-07-30T14:48:02;5.03;;;2.50;;
21727;SDS011;11026;50.560;17.852;2023-07-30T14:50:29;7.18;;;2.95;;